Montreal, Canada
Current Conditions -  °F | °C
As of 1:24 AM on Wednesday 22 Oct 2014 (Local Time) from CYHU Reporting Station
Overcast Overcast  
Wind Chill: 34°   Ceiling: 3500
Heat Index: 43°   Visibility: 9mi
Dew Point: 36°   Wind: 20mph
Humidity: 76%   Direction: 30°NNE
Pressure: 30.18"   Gusts: NA
Location:  45.51°N, 73.55°W
Report Text: CYHU 220524Z AUTO 03017KT 9SM SCT022 BKN035 OVC044 06/02 A3018 RMK SLP220
Loading
Personal Weather Stations






























Interactive Weather Map
Tropical Storm Tracking
New forecast layout! Learn more

10-Day Weather Forecast

Advertisements
Track Severe Weather on mobile